Overview Statistics Trail Chart Weather Telemetry Raw packets
 

This is the latest recevied weather packets stored in our database for station/object HI3RRR-14. If no packets are shown the sender has not sent any weather packets the latest 10 day(s).

<< 50 51 52 53 54 55 56 >>
Time Temp. Humidity Pressure Rain* Wind** Luminosity Snow
1787842459 28.33° C 60% 1016 hPa 0 mm - - -
1787841858 27.78° C 60% 1016 hPa 0 mm - - -
1787841257 27.78° C 60% 1016 hPa 0 mm - - -
1787840656 27.22° C 67% 1016 hPa 0 mm - - -
1787840055 27.22° C 69% 1016 hPa 0 mm - - -
1787839455 27.22° C 69% 1016 hPa 0 mm - - -
1787838854 26.67° C 68% 1016 hPa 0 mm - - -
1787838254 26.67° C 68% 1016 hPa 0 mm - - -
1787837653 25.56° C 75% 1016 hPa 0 mm - - -
1787837052 25.56° C 75% 1016 hPa 0 mm - - -
1787836452 25.56° C 76% 1016 hPa 0 mm - - -
1787835854 25.56° C 76% 1016 hPa 0 mm - - -
1787835250 25° C 75% 1016 hPa 0 mm - - -
1787834650 25° C 75% 1016 hPa 0 mm - - -
1787834049 25° C 75% 1016 hPa 0 mm - - -
1787833448 23.89° C 82% 1016 hPa 0 mm - - -
1787832848 23.89° C 81% 1016 hPa 0 mm - - -
1787832247 23.89° C 81% 1016 hPa 0 mm - - -
1787831647 23.89° C 78% 1017 hPa 0 mm - - -
1787831046 23.33° C 79% 1017 hPa 0 mm - - -
1787830445 23.33° C 79% 1017 hPa 0 mm - - -
1787829845 21.67° C 86% 1016 hPa 0 mm - - -
1787829244 21.67° C 85% 1016 hPa 0 mm - - -
1787828644 21.67° C 85% 1016 hPa 0 mm - - -
1787828043 21.67° C 83% 1016 hPa 0 mm - - -

* Rain latest hour (hover to see other rain measurements)
** Current wind speed in m/s (hover to see current wind gust speed)